createdAt,value
2022-09-13T00:01:02.024Z,20.30
2022-09-13T00:03:30.352Z,20.20
2022-09-13T00:05:56.969Z,20.40
2022-09-13T00:08:24.060Z,20.30
2022-09-13T00:10:53.691Z,20.30
2022-09-13T00:13:20.275Z,20.80
2022-09-13T00:15:49.072Z,20.40
2022-09-13T00:18:16.737Z,20.20
2022-09-13T00:20:43.359Z,20.50
2022-09-13T00:23:10.863Z,20.20
2022-09-13T00:25:37.945Z,20.20
2022-09-13T00:30:32.098Z,20.70
2022-09-13T00:32:58.673Z,20.30
2022-09-13T00:35:25.216Z,20.10
2022-09-13T00:37:51.760Z,20.80
2022-09-13T00:42:45.511Z,20.20
2022-09-13T00:45:12.178Z,20.40
2022-09-13T00:48:04.893Z,20.30
2022-09-13T00:50:48.600Z,20.40
2022-09-13T00:53:37.513Z,20.40
2022-09-13T00:56:17.922Z,20.40
2022-09-13T00:58:58.836Z,20.30
2022-09-13T01:01:31.768Z,20.30
2022-09-13T01:03:58.724Z,20.30
2022-09-13T01:06:32.858Z,20.30
2022-09-13T01:09:04.423Z,20.30
2022-09-13T01:11:55.529Z,20.30
2022-09-13T01:14:23.645Z,20.50
2022-09-13T01:16:50.608Z,20.30
2022-09-13T01:19:17.433Z,20.50
2022-09-13T01:21:55.856Z,20.50
2022-09-13T01:24:36.813Z,20.50
2022-09-13T01:27:17.924Z,20.10
2022-09-13T01:30:03.090Z,20.40
2022-09-13T01:36:16.327Z,20.30
2022-09-13T01:39:06.179Z,20.50
2022-09-13T01:42:02.663Z,20.10
2022-09-13T01:44:40.499Z,20.40
2022-09-13T01:47:27.936Z,20.30
2022-09-13T01:50:11.565Z,20.30
2022-09-13T01:53:16.402Z,20.80
2022-09-13T01:55:56.708Z,20.30
2022-09-13T01:58:26.945Z,20.40
2022-09-13T02:01:31.841Z,20.40
2022-09-13T02:04:15.218Z,20.40
2022-09-13T02:06:46.565Z,20.40
2022-09-13T02:09:21.643Z,20.10
2022-09-13T02:11:53.723Z,20.20
2022-09-13T02:14:27.481Z,20.30
2022-09-13T02:17:15.174Z,20.40
2022-09-13T02:19:47.087Z,20.20
2022-09-13T02:22:18.073Z,20.40
2022-09-13T02:24:50.788Z,20.40
2022-09-13T02:27:23.560Z,20.40
2022-09-13T02:29:57.608Z,20.40
2022-09-13T02:32:32.928Z,20.30
2022-09-13T02:35:20.043Z,20.60
2022-09-13T02:37:51.645Z,20.40
2022-09-13T02:40:25.039Z,20.60
2022-09-13T02:43:08.441Z,20.50
2022-09-13T02:45:51.039Z,20.40
2022-09-13T02:48:29.628Z,20.40
2022-09-13T02:51:37.560Z,20.30
2022-09-13T02:54:32.986Z,20.50
2022-09-13T02:57:13.363Z,20.50
2022-09-13T02:59:39.945Z,20.50
2022-09-13T03:02:16.488Z,20.40
2022-09-13T03:04:43.185Z,20.30
2022-09-13T03:07:11.653Z,20.30
2022-09-13T03:09:57.021Z,20.30
2022-09-13T03:12:58.739Z,20.30
2022-09-13T03:16:00.596Z,20.40
2022-09-13T03:18:35.941Z,20.40
2022-09-13T03:21:53.403Z,20.20
2022-09-13T03:24:25.485Z,20.20
2022-09-13T03:27:11.870Z,20.20
2022-09-13T03:29:48.252Z,20.50
2022-09-13T03:32:23.588Z,20.40
2022-09-13T03:35:09.273Z,20.20
2022-09-13T03:38:00.608Z,20.30
2022-09-13T03:40:33.063Z,20.30
2022-09-13T03:43:22.312Z,20.40
2022-09-13T03:45:52.357Z,20.40
2022-09-13T03:48:20.451Z,20.40
2022-09-13T03:50:47.788Z,20.40
2022-09-13T03:53:19.648Z,20.50
2022-09-13T03:55:46.332Z,20.50
2022-09-13T03:58:15.404Z,20.60
2022-09-13T04:00:42.572Z,20.30
2022-09-13T04:03:09.295Z,20.60
2022-09-13T04:05:35.930Z,20.40
2022-09-13T04:08:05.609Z,20.30
2022-09-13T04:10:33.051Z,20.60
2022-09-13T04:13:02.608Z,20.20
2022-09-13T04:15:31.176Z,20.50
2022-09-13T04:17:58.019Z,20.40
2022-09-13T04:20:25.810Z,20.20
2022-09-13T04:22:53.522Z,20.50
2022-09-13T04:25:21.292Z,20.40
2022-09-13T04:27:49.086Z,20.10
2022-09-13T04:30:15.877Z,19.80
2022-09-13T04:32:45.174Z,19.60
2022-09-13T04:35:12.030Z,19.40
2022-09-13T04:37:39.103Z,19.30
2022-09-13T04:40:08.098Z,19.30
2022-09-13T04:42:35.147Z,19.20
2022-09-13T04:45:01.985Z,19.20
2022-09-13T04:47:28.549Z,19.30
2022-09-13T04:49:55.111Z,19.10
2022-09-13T04:52:21.622Z,19.00
2022-09-13T04:54:48.221Z,19.00
2022-09-13T04:57:16.492Z,18.90
2022-09-13T04:59:43.773Z,18.90
2022-09-13T05:02:10.601Z,19.00
2022-09-13T05:04:37.192Z,19.10
2022-09-13T05:07:04.684Z,19.00
2022-09-13T05:09:31.216Z,19.20
2022-09-13T05:14:24.725Z,19.70
2022-09-13T05:16:51.272Z,19.80
2022-09-13T05:19:17.958Z,19.90
2022-09-13T05:21:44.626Z,19.90
2022-09-13T05:24:11.769Z,19.90
2022-09-13T05:26:38.271Z,20.00
2022-09-13T05:29:05.233Z,20.00
2022-09-13T05:31:35.021Z,20.10
2022-09-13T05:34:04.853Z,20.10
2022-09-13T05:36:31.793Z,20.10
2022-09-13T05:39:26.068Z,20.10
2022-09-13T05:41:46.126Z,20.10
2022-09-13T05:44:13.775Z,20.10
2022-09-13T05:46:41.214Z,20.20
2022-09-13T05:49:07.757Z,20.10
2022-09-13T05:51:34.359Z,20.10
2022-09-13T05:54:00.865Z,20.10
2022-09-13T05:56:29.899Z,20.10
2022-09-13T05:58:56.653Z,20.10
2022-09-13T06:01:26.361Z,20.20
2022-09-13T06:03:58.025Z,20.30
2022-09-13T06:06:25.179Z,20.00
2022-09-13T06:08:56.057Z,20.20
2022-09-13T06:11:23.887Z,20.20
2022-09-13T06:13:50.785Z,20.30
2022-09-13T06:16:17.855Z,20.20
2022-09-13T06:18:45.082Z,20.20
2022-09-13T06:21:26.955Z,20.50
2022-09-13T06:23:55.841Z,20.40
2022-09-13T06:26:27.059Z,20.20
2022-09-13T06:28:55.901Z,20.30
2022-09-13T06:31:24.816Z,20.50
2022-09-13T06:33:57.493Z,20.20
2022-09-13T06:36:24.590Z,20.40
2022-09-13T06:38:51.432Z,20.50
2022-09-13T06:41:20.494Z,20.40
2022-09-13T06:43:50.620Z,20.10
2022-09-13T06:46:24.638Z,20.30
2022-09-13T06:48:52.559Z,20.10
2022-09-13T06:51:21.393Z,20.60
2022-09-13T06:53:49.440Z,20.00
2022-09-13T06:56:18.201Z,20.10
2022-09-13T06:58:46.479Z,20.30
2022-09-13T07:01:18.400Z,20.50
2022-09-13T07:03:50.156Z,20.60
2022-09-13T07:06:22.162Z,20.30
2022-09-13T07:08:51.564Z,20.10
2022-09-13T07:11:20.130Z,20.00
2022-09-13T07:13:54.794Z,19.70
2022-09-13T07:16:26.953Z,20.00
2022-09-13T07:19:07.914Z,20.00
2022-09-13T07:21:35.487Z,19.50
2022-09-13T07:24:02.344Z,19.70
2022-09-13T07:26:28.986Z,19.70
2022-09-13T07:28:58.969Z,19.70
2022-09-13T07:31:28.778Z,19.80
2022-09-13T07:34:00.571Z,19.80
2022-09-13T07:36:29.511Z,19.90
2022-09-13T07:38:56.262Z,19.80
2022-09-13T07:41:24.741Z,20.00
2022-09-13T07:43:51.998Z,20.10
2022-09-13T07:46:24.124Z,20.40
2022-09-13T07:48:53.851Z,20.30
2022-09-13T07:51:32.337Z,20.10
2022-09-13T07:54:01.746Z,19.90
2022-09-13T07:56:30.894Z,20.30
2022-09-13T07:59:00.706Z,20.20
2022-09-13T08:01:29.652Z,20.60
2022-09-13T08:04:05.392Z,20.20
2022-09-13T08:06:34.009Z,20.40
2022-09-13T08:09:01.144Z,20.20
2022-09-13T08:11:33.969Z,20.30
2022-09-13T08:14:01.199Z,20.70
2022-09-13T08:16:28.914Z,20.50
2022-09-13T08:18:57.575Z,20.50
2022-09-13T08:21:25.177Z,20.50
2022-09-13T08:23:56.485Z,20.60
2022-09-13T08:28:55.161Z,20.80
2022-09-13T08:31:22.862Z,20.70
2022-09-13T08:33:49.703Z,21.00
2022-09-13T08:36:17.109Z,21.20
2022-09-13T08:38:52.535Z,21.10
2022-09-13T08:41:41.869Z,21.00
2022-09-13T08:44:34.689Z,20.90
2022-09-13T08:47:13.095Z,21.10
2022-09-13T08:52:32.935Z,20.70
2022-09-13T08:55:08.234Z,20.50
2022-09-13T08:57:53.040Z,20.70
2022-09-13T09:00:25.734Z,20.40
2022-09-13T09:03:04.312Z,20.60
2022-09-13T09:05:39.933Z,20.60
2022-09-13T09:08:34.261Z,20.90
2022-09-13T09:11:13.426Z,20.90
2022-09-13T09:13:52.121Z,20.90
2022-09-13T09:16:39.229Z,20.40
2022-09-13T09:19:27.217Z,20.50
2022-09-13T09:21:53.842Z,20.80
2022-09-13T09:24:25.344Z,20.90
2022-09-13T09:29:28.189Z,21.00
2022-09-13T09:32:28.639Z,20.40
2022-09-13T09:35:21.498Z,21.00
2022-09-13T09:38:03.997Z,20.60
2022-09-13T09:40:32.590Z,20.70
2022-09-13T09:42:59.411Z,21.00
2022-09-13T09:45:35.727Z,20.90
2022-09-13T09:48:12.601Z,20.70
2022-09-13T09:50:45.176Z,20.70
2022-09-13T09:53:16.680Z,21.00
2022-09-13T09:55:46.806Z,20.70
2022-09-13T10:00:57.813Z,20.80
2022-09-13T10:03:29.667Z,21.30
2022-09-13T10:06:19.318Z,21.30
2022-09-13T10:08:56.212Z,20.90
2022-09-13T10:11:27.061Z,21.10
2022-09-13T10:14:02.172Z,21.00
2022-09-13T10:16:30.429Z,20.90
2022-09-13T10:19:25.468Z,20.90
2022-09-13T10:22:03.535Z,21.10
2022-09-13T10:24:30.528Z,21.00
2022-09-13T10:26:58.625Z,21.10
2022-09-13T10:29:27.709Z,21.10
2022-09-13T10:31:57.646Z,21.10
2022-09-13T10:34:31.733Z,21.10
2022-09-13T10:37:05.513Z,21.10
2022-09-13T10:39:36.300Z,21.10
2022-09-13T10:42:06.069Z,21.00
2022-09-13T10:44:53.200Z,21.10
2022-09-13T10:47:24.332Z,21.00
2022-09-13T10:49:53.066Z,21.10
2022-09-13T10:52:27.636Z,21.10
2022-09-13T10:54:55.662Z,21.10
2022-09-13T10:57:52.673Z,21.10
2022-09-13T11:00:35.035Z,21.20
2022-09-13T11:03:38.674Z,21.20
2022-09-13T11:06:34.716Z,21.20
2022-09-13T11:09:27.845Z,21.20
2022-09-13T11:12:19.678Z,21.20
2022-09-13T11:15:06.437Z,21.20
2022-09-13T11:17:51.662Z,21.20
2022-09-13T11:20:27.277Z,21.20
2022-09-13T11:22:56.843Z,21.20
2022-09-13T11:25:47.681Z,21.20
2022-09-13T11:28:49.826Z,21.20
2022-09-13T11:31:49.860Z,21.30
2022-09-13T11:34:37.869Z,21.30
2022-09-13T11:37:15.188Z,21.30
2022-09-13T11:39:50.129Z,21.20
2022-09-13T11:42:44.387Z,21.20
2022-09-13T11:45:21.827Z,21.20
2022-09-13T11:48:13.402Z,21.20
2022-09-13T11:51:07.476Z,21.20
2022-09-13T11:53:52.764Z,21.20
2022-09-13T11:56:38.275Z,21.30
2022-09-13T11:59:23.571Z,21.20
2022-09-13T12:01:55.996Z,21.30
2022-09-13T12:04:33.083Z,21.20
2022-09-13T12:07:07.315Z,21.30
2022-09-13T12:09:40.508Z,21.20
2022-09-13T12:12:13.892Z,21.20
2022-09-13T12:14:50.451Z,21.30
2022-09-13T12:17:41.816Z,21.30
2022-09-13T12:20:36.730Z,21.20
2022-09-13T12:23:11.120Z,21.30
2022-09-13T12:25:50.172Z,21.20
2022-09-13T12:28:23.291Z,21.20
2022-09-13T12:30:59.373Z,21.20
2022-09-13T12:33:26.154Z,21.20
2022-09-13T12:36:09.626Z,21.20
2022-09-13T12:39:15.002Z,21.20
2022-09-13T12:41:53.409Z,21.20
2022-09-13T12:44:41.103Z,21.10
2022-09-13T12:47:39.488Z,21.20
2022-09-13T12:50:44.125Z,21.20
2022-09-13T12:53:33.432Z,21.10
2022-09-13T12:56:09.549Z,21.20
2022-09-13T12:58:45.143Z,21.20
2022-09-13T13:01:19.915Z,21.20
2022-09-13T13:04:03.242Z,21.20
2022-09-13T13:08:59.893Z,21.30
2022-09-13T13:11:29.259Z,21.30
2022-09-13T13:14:02.268Z,21.20
2022-09-13T13:16:35.268Z,21.70
2022-09-13T13:19:04.067Z,21.40
2022-09-13T13:21:35.086Z,21.30
2022-09-13T13:24:27.733Z,21.40
2022-09-13T13:26:56.074Z,21.30
2022-09-13T13:29:31.200Z,21.20
2022-09-13T13:31:57.718Z,21.30
2022-09-13T13:34:24.223Z,21.30
2022-09-13T13:36:58.219Z,21.60
2022-09-13T13:39:27.877Z,21.50
2022-09-13T13:42:17.444Z,21.50
2022-09-13T13:44:43.936Z,21.70
2022-09-13T13:47:13.455Z,21.70
2022-09-13T13:49:40.212Z,21.40
2022-09-13T13:52:09.978Z,21.20
2022-09-13T13:54:42.914Z,21.70
2022-09-13T13:57:33.033Z,21.40
2022-09-13T14:00:19.634Z,21.40
2022-09-13T14:03:08.986Z,21.40
2022-09-13T14:06:10.357Z,21.20
2022-09-13T14:09:19.949Z,21.50
2022-09-13T14:12:16.202Z,21.10
2022-09-13T14:14:58.665Z,21.40
2022-09-13T14:17:40.182Z,21.80
2022-09-13T14:20:12.263Z,21.30
2022-09-13T14:22:38.804Z,21.40
2022-09-13T14:25:20.033Z,21.40
2022-09-13T14:27:48.642Z,21.30
2022-09-13T14:30:26.924Z,21.40
2022-09-13T14:32:57.734Z,21.40
2022-09-13T14:35:33.601Z,21.30
2022-09-13T14:38:33.442Z,21.70
2022-09-13T14:41:11.234Z,21.40
2022-09-13T14:43:37.785Z,21.70
2022-09-13T14:46:27.305Z,21.40
2022-09-13T14:49:02.024Z,20.90
2022-09-13T14:51:33.985Z,21.40
2022-09-13T14:54:10.965Z,21.30
2022-09-13T14:56:44.803Z,21.30
2022-09-13T14:59:21.826Z,21.20
2022-09-13T15:01:48.490Z,21.20
2022-09-13T15:04:18.482Z,21.70
2022-09-13T15:06:45.086Z,21.10
2022-09-13T15:09:11.633Z,21.30
2022-09-13T15:11:43.362Z,21.40
2022-09-13T15:14:25.527Z,21.30
2022-09-13T15:17:03.353Z,21.30
2022-09-13T15:19:52.457Z,21.20
2022-09-13T15:22:31.396Z,21.30
2022-09-13T15:25:00.292Z,21.70
2022-09-13T15:27:29.923Z,21.00
2022-09-13T15:30:03.125Z,21.10
2022-09-13T15:32:34.502Z,21.30
2022-09-13T15:35:02.292Z,21.10
2022-09-13T15:37:37.666Z,21.40
2022-09-13T15:40:16.326Z,21.80
2022-09-13T15:42:47.383Z,21.20
2022-09-13T15:47:41.172Z,21.10
2022-09-13T15:50:12.198Z,21.40
2022-09-13T15:52:38.729Z,21.20
2022-09-13T15:55:06.169Z,21.40
2022-09-13T15:57:33.122Z,21.80
2022-09-13T16:00:05.575Z,21.40
2022-09-13T16:02:35.550Z,21.20
2022-09-13T16:05:02.113Z,21.60
2022-09-13T16:07:28.635Z,21.30
2022-09-13T16:09:55.191Z,21.40
2022-09-13T16:17:25.290Z,21.40
2022-09-13T16:19:52.442Z,21.50
2022-09-13T16:22:18.961Z,21.20
2022-09-13T16:24:45.705Z,21.30
2022-09-13T16:27:14.840Z,21.30
2022-09-13T16:29:42.189Z,21.10
2022-09-13T16:32:08.807Z,21.40
2022-09-13T16:34:35.365Z,21.40
2022-09-13T16:37:02.107Z,21.20
2022-09-13T16:39:29.278Z,21.30
2022-09-13T16:41:55.854Z,21.70
2022-09-13T16:44:22.516Z,21.30
2022-09-13T16:46:49.227Z,21.40
2022-09-13T16:49:16.096Z,21.30
2022-09-13T16:51:42.709Z,21.60
2022-09-13T16:54:09.251Z,21.20
2022-09-13T16:56:35.845Z,21.50
2022-09-13T16:59:02.919Z,21.40
2022-09-13T17:01:30.239Z,21.40
2022-09-13T17:03:57.461Z,21.30
2022-09-13T17:06:25.618Z,21.30
2022-09-13T17:09:01.440Z,21.20
2022-09-13T17:11:31.109Z,21.30
2022-09-13T17:13:58.146Z,21.70
2022-09-13T17:16:34.682Z,21.30
2022-09-13T17:19:06.040Z,21.10
2022-09-13T17:21:33.745Z,21.20
2022-09-13T17:24:01.184Z,21.40
2022-09-13T17:26:27.809Z,21.20
2022-09-13T17:28:54.523Z,21.30
2022-09-13T17:31:21.290Z,21.40
2022-09-13T17:38:44.212Z,21.50
2022-09-13T17:41:14.076Z,21.60
2022-09-13T17:43:42.808Z,21.00
2022-09-13T17:46:14.404Z,21.00
2022-09-13T17:48:41.440Z,21.50
2022-09-13T17:51:11.510Z,21.10
2022-09-13T17:53:47.086Z,21.30
2022-09-13T17:56:18.919Z,21.30
2022-09-13T17:58:46.053Z,21.30
2022-09-13T18:01:13.291Z,21.30
2022-09-13T18:03:39.989Z,21.30
2022-09-13T18:06:08.895Z,21.30
2022-09-13T18:08:37.693Z,21.30
2022-09-13T18:11:14.221Z,21.30
2022-09-13T18:13:42.847Z,21.30
2022-09-13T18:16:21.263Z,21.20
2022-09-13T18:18:52.518Z,21.20
2022-09-13T18:21:21.947Z,21.20
2022-09-13T18:23:50.341Z,19.50
2022-09-13T18:26:20.149Z,21.20
2022-09-13T18:28:47.310Z,21.20
2022-09-13T18:31:18.088Z,21.10
2022-09-13T18:33:45.760Z,21.10
2022-09-13T18:36:18.019Z,21.10
2022-09-13T18:38:46.664Z,21.10
2022-09-13T18:41:18.622Z,21.10
2022-09-13T18:43:46.508Z,21.10
2022-09-13T18:46:17.981Z,21.00
2022-09-13T18:48:47.644Z,21.00
2022-09-13T18:51:16.798Z,20.90
2022-09-13T18:53:44.678Z,20.90
2022-09-13T18:56:14.186Z,20.90
2022-09-13T18:58:42.477Z,20.90
2022-09-13T19:01:10.910Z,20.90
2022-09-13T19:03:38.500Z,20.00
2022-09-13T19:06:19.741Z,20.90
2022-09-13T19:08:47.220Z,20.80
2022-09-13T19:11:35.201Z,20.80
2022-09-13T19:14:01.837Z,20.70
2022-09-13T19:16:28.426Z,20.70
2022-09-13T19:18:56.684Z,20.80
2022-09-13T19:21:32.331Z,20.80
2022-09-13T19:24:03.085Z,20.80
2022-09-13T19:26:38.877Z,20.70
2022-09-13T19:29:08.649Z,20.70
2022-09-13T19:31:38.518Z,20.60
2022-09-13T19:34:06.209Z,20.60
2022-09-13T19:36:34.911Z,20.60
2022-09-13T19:39:02.217Z,20.60
2022-09-13T19:41:30.400Z,20.50
2022-09-13T19:44:00.229Z,20.50
2022-09-13T19:46:31.350Z,20.50
2022-09-13T19:49:00.673Z,20.50
2022-09-13T19:51:38.431Z,20.50
2022-09-13T19:54:06.213Z,20.40
2022-09-13T19:56:36.814Z,20.40
2022-09-13T19:59:03.869Z,20.40
2022-09-13T20:01:35.758Z,20.40
2022-09-13T20:04:05.428Z,20.40
2022-09-13T20:06:40.088Z,20.40
2022-09-13T20:09:08.603Z,20.30
2022-09-13T20:11:38.780Z,20.30
2022-09-13T20:14:08.627Z,20.30
2022-09-13T20:16:37.175Z,20.30
2022-09-13T20:19:13.937Z,20.30
2022-09-13T20:21:51.199Z,20.20
2022-09-13T20:24:18.640Z,20.20
2022-09-13T20:26:45.222Z,20.10
2022-09-13T20:29:12.371Z,20.20
2022-09-13T20:31:39.057Z,20.20
2022-09-13T20:34:07.739Z,20.20
2022-09-13T20:36:36.477Z,20.20
2022-09-13T20:39:04.513Z,20.10
2022-09-13T20:41:31.724Z,20.20
2022-09-13T20:43:59.627Z,20.20
2022-09-13T20:46:27.035Z,20.20
2022-09-13T20:48:53.668Z,20.10
2022-09-13T20:51:23.159Z,20.10
2022-09-13T20:53:55.761Z,20.10
2022-09-13T20:56:23.372Z,20.00
2022-09-13T20:58:57.126Z,20.20
2022-09-13T21:01:24.727Z,20.40
2022-09-13T21:03:54.588Z,20.40
2022-09-13T21:06:23.480Z,20.50
2022-09-13T21:08:50.686Z,20.60
2022-09-13T21:11:33.788Z,20.60
2022-09-13T21:14:08.293Z,20.70
2022-09-13T21:16:38.840Z,20.70
2022-09-13T21:19:05.601Z,20.70
2022-09-13T21:21:35.165Z,20.70
2022-09-13T21:24:08.495Z,20.70
2022-09-13T21:26:35.387Z,20.80
2022-09-13T21:29:02.282Z,20.80
2022-09-13T21:31:32.386Z,20.80
2022-09-13T21:34:04.908Z,20.80
2022-09-13T21:36:34.526Z,20.80
2022-09-13T21:39:01.964Z,20.80
2022-09-13T21:41:29.827Z,20.80
2022-09-13T21:43:56.834Z,20.80
2022-09-13T21:46:29.653Z,20.80
2022-09-13T21:49:08.065Z,20.80
2022-09-13T21:51:40.473Z,20.80
2022-09-13T21:54:09.647Z,20.80
2022-09-13T21:56:39.693Z,20.80
2022-09-13T21:59:08.597Z,20.80
2022-09-13T22:01:38.852Z,20.80
2022-09-13T22:04:07.328Z,20.80
2022-09-13T22:06:37.087Z,20.80
2022-09-13T22:09:07.299Z,20.80
2022-09-13T22:11:40.000Z,20.80
2022-09-13T22:14:07.845Z,20.80
2022-09-13T22:16:37.134Z,20.90
2022-09-13T22:19:09.263Z,20.80
2022-09-13T22:21:38.936Z,20.90
2022-09-13T22:24:06.867Z,20.90
2022-09-13T22:26:35.859Z,20.90
2022-09-13T22:29:02.877Z,20.90
2022-09-13T22:31:34.891Z,20.80
2022-09-13T22:34:02.223Z,20.90
2022-09-13T22:36:29.143Z,20.90
2022-09-13T22:38:56.272Z,20.90
2022-09-13T22:41:28.828Z,20.90
2022-09-13T22:43:55.767Z,20.90
2022-09-13T22:46:31.185Z,20.90
2022-09-13T22:48:58.064Z,20.90
2022-09-13T22:51:25.096Z,20.80
2022-09-13T22:53:53.655Z,20.90
2022-09-13T22:56:26.305Z,20.90
2022-09-13T22:58:54.807Z,20.90
2022-09-13T23:01:22.793Z,20.90
2022-09-13T23:03:50.212Z,20.90
2022-09-13T23:06:20.012Z,20.90
2022-09-13T23:08:48.077Z,20.80
2022-09-13T23:11:18.929Z,20.90
2022-09-13T23:13:47.900Z,20.90
2022-09-13T23:16:20.081Z,20.90
2022-09-13T23:18:47.367Z,20.90
2022-09-13T23:21:16.507Z,20.90
2022-09-13T23:23:43.066Z,20.90
2022-09-13T23:26:12.542Z,20.90
2022-09-13T23:28:39.336Z,20.90
2022-09-13T23:31:10.056Z,20.90
2022-09-13T23:33:48.551Z,20.90
2022-09-13T23:36:17.977Z,20.90
2022-09-13T23:38:50.016Z,20.90
2022-09-13T23:41:17.951Z,20.80
2022-09-13T23:43:45.184Z,20.90
2022-09-13T23:46:11.826Z,20.90
2022-09-13T23:48:38.886Z,20.90
2022-09-13T23:51:08.043Z,20.90
2022-09-13T23:53:36.574Z,20.90
2022-09-13T23:56:04.564Z,20.90
2022-09-13T23:58:31.984Z,20.90
